sensor_id;sensor_type;location;lat;lon;timestamp;P1;durP1;ratioP1;P2;durP2;ratioP2
38851;SDS011;24605;50.092;9.182;2023-06-19T00:02:11;7.90;;;5.45;;
38851;SDS011;24605;50.092;9.182;2023-06-19T00:04:38;7.20;;;5.57;;
38851;SDS011;24605;50.092;9.182;2023-06-19T00:07:04;8.02;;;5.68;;
38851;SDS011;24605;50.092;9.182;2023-06-19T00:09:31;8.90;;;6.07;;
38851;SDS011;24605;50.092;9.182;2023-06-19T00:11:58;8.88;;;5.60;;
38851;SDS011;24605;50.092;9.182;2023-06-19T00:14:26;8.55;;;5.53;;
38851;SDS011;24605;50.092;9.182;2023-06-19T00:16:54;9.30;;;6.20;;
38851;SDS011;24605;50.092;9.182;2023-06-19T00:19:21;8.82;;;5.78;;
38851;SDS011;24605;50.092;9.182;2023-06-19T00:21:48;11.48;;;5.97;;
38851;SDS011;24605;50.092;9.182;2023-06-19T00:24:14;9.38;;;5.60;;
38851;SDS011;24605;50.092;9.182;2023-06-19T00:26:41;9.30;;;5.95;;
38851;SDS011;24605;50.092;9.182;2023-06-19T00:29:07;8.32;;;5.63;;
38851;SDS011;24605;50.092;9.182;2023-06-19T00:31:34;7.78;;;5.60;;
38851;SDS011;24605;50.092;9.182;2023-06-19T00:34:03;9.27;;;6.28;;
38851;SDS011;24605;50.092;9.182;2023-06-19T00:36:30;8.38;;;5.85;;
38851;SDS011;24605;50.092;9.182;2023-06-19T00:38:57;8.82;;;6.00;;
38851;SDS011;24605;50.092;9.182;2023-06-19T00:41:24;8.40;;;6.05;;
38851;SDS011;24605;50.092;9.182;2023-06-19T00:43:52;9.55;;;6.10;;
38851;SDS011;24605;50.092;9.182;2023-06-19T00:46:19;8.85;;;5.90;;
38851;SDS011;24605;50.092;9.182;2023-06-19T00:48:45;8.30;;;6.18;;
38851;SDS011;24605;50.092;9.182;2023-06-19T00:51:13;8.30;;;5.95;;
38851;SDS011;24605;50.092;9.182;2023-06-19T00:53:40;8.38;;;5.70;;
38851;SDS011;24605;50.092;9.182;2023-06-19T00:56:06;7.97;;;5.85;;
38851;SDS011;24605;50.092;9.182;2023-06-19T00:58:33;7.70;;;6.05;;
38851;SDS011;24605;50.092;9.182;2023-06-19T01:01:00;9.38;;;6.15;;
38851;SDS011;24605;50.092;9.182;2023-06-19T01:03:27;10.18;;;6.18;;
38851;SDS011;24605;50.092;9.182;2023-06-19T01:05:53;9.30;;;6.00;;
38851;SDS011;24605;50.092;9.182;2023-06-19T01:08:28;9.60;;;6.28;;
38851;SDS011;24605;50.092;9.182;2023-06-19T01:11:08;9.20;;;5.93;;
38851;SDS011;24605;50.092;9.182;2023-06-19T01:13:37;11.23;;;6.78;;
38851;SDS011;24605;50.092;9.182;2023-06-19T01:16:08;9.07;;;6.22;;
38851;SDS011;24605;50.092;9.182;2023-06-19T01:18:37;8.50;;;6.50;;
38851;SDS011;24605;50.092;9.182;2023-06-19T01:21:10;9.02;;;6.60;;
38851;SDS011;24605;50.092;9.182;2023-06-19T01:23:39;9.35;;;5.90;;
38851;SDS011;24605;50.092;9.182;2023-06-19T01:26:06;8.40;;;6.05;;
38851;SDS011;24605;50.092;9.182;2023-06-19T01:28:33;10.63;;;6.78;;
38851;SDS011;24605;50.092;9.182;2023-06-19T01:31:02;8.02;;;6.25;;
38851;SDS011;24605;50.092;9.182;2023-06-19T01:33:32;10.70;;;5.85;;
38851;SDS011;24605;50.092;9.182;2023-06-19T01:36:00;9.00;;;6.22;;
38851;SDS011;24605;50.092;9.182;2023-06-19T01:38:28;9.10;;;6.35;;
38851;SDS011;24605;50.092;9.182;2023-06-19T01:40:58;10.23;;;7.03;;
38851;SDS011;24605;50.092;9.182;2023-06-19T01:43:27;8.95;;;6.40;;
38851;SDS011;24605;50.092;9.182;2023-06-19T01:45:56;8.43;;;6.55;;
38851;SDS011;24605;50.092;9.182;2023-06-19T01:48:22;10.18;;;6.55;;
38851;SDS011;24605;50.092;9.182;2023-06-19T01:50:49;10.95;;;6.43;;
38851;SDS011;24605;50.092;9.182;2023-06-19T01:53:17;9.57;;;6.20;;
38851;SDS011;24605;50.092;9.182;2023-06-19T01:55:43;8.75;;;6.32;;
38851;SDS011;24605;50.092;9.182;2023-06-19T01:58:12;9.63;;;6.68;;
38851;SDS011;24605;50.092;9.182;2023-06-19T02:00:38;9.07;;;6.82;;
38851;SDS011;24605;50.092;9.182;2023-06-19T02:03:05;10.18;;;6.72;;
38851;SDS011;24605;50.092;9.182;2023-06-19T02:05:31;9.05;;;6.22;;
38851;SDS011;24605;50.092;9.182;2023-06-19T02:07:59;9.15;;;6.40;;
38851;SDS011;24605;50.092;9.182;2023-06-19T02:10:25;10.25;;;6.35;;
38851;SDS011;24605;50.092;9.182;2023-06-19T02:12:52;8.57;;;6.40;;
38851;SDS011;24605;50.092;9.182;2023-06-19T02:15:20;10.30;;;6.13;;
38851;SDS011;24605;50.092;9.182;2023-06-19T02:17:46;10.23;;;6.75;;
38851;SDS011;24605;50.092;9.182;2023-06-19T02:20:13;8.63;;;6.43;;
38851;SDS011;24605;50.092;9.182;2023-06-19T02:22:39;9.02;;;6.30;;
38851;SDS011;24605;50.092;9.182;2023-06-19T02:25:06;11.98;;;6.63;;
38851;SDS011;24605;50.092;9.182;2023-06-19T02:27:33;7.47;;;5.97;;
38851;SDS011;24605;50.092;9.182;2023-06-19T02:30:00;8.98;;;6.38;;
38851;SDS011;24605;50.092;9.182;2023-06-19T02:32:28;11.82;;;6.60;;
38851;SDS011;24605;50.092;9.182;2023-06-19T02:34:54;8.48;;;6.68;;
38851;SDS011;24605;50.092;9.182;2023-06-19T02:37:21;10.80;;;6.80;;
38851;SDS011;24605;50.092;9.182;2023-06-19T02:39:47;11.45;;;6.57;;
38851;SDS011;24605;50.092;9.182;2023-06-19T02:42:14;8.57;;;6.18;;
38851;SDS011;24605;50.092;9.182;2023-06-19T02:44:40;12.20;;;7.05;;
38851;SDS011;24605;50.092;9.182;2023-06-19T02:47:08;9.38;;;6.28;;
38851;SDS011;24605;50.092;9.182;2023-06-19T02:49:36;8.02;;;6.30;;
38851;SDS011;24605;50.092;9.182;2023-06-19T02:52:03;8.77;;;6.25;;
38851;SDS011;24605;50.092;9.182;2023-06-19T02:54:30;9.35;;;6.97;;
38851;SDS011;24605;50.092;9.182;2023-06-19T02:56:57;9.90;;;6.57;;
38851;SDS011;24605;50.092;9.182;2023-06-19T02:59:24;10.52;;;6.38;;
38851;SDS011;24605;50.092;9.182;2023-06-19T03:01:51;8.75;;;6.50;;
38851;SDS011;24605;50.092;9.182;2023-06-19T03:04:18;9.75;;;7.30;;
38851;SDS011;24605;50.092;9.182;2023-06-19T03:06:45;10.20;;;6.90;;
38851;SDS011;24605;50.092;9.182;2023-06-19T03:09:12;11.00;;;6.70;;
38851;SDS011;24605;50.092;9.182;2023-06-19T03:11:38;7.75;;;6.43;;
38851;SDS011;24605;50.092;9.182;2023-06-19T03:14:05;10.27;;;6.60;;
38851;SDS011;24605;50.092;9.182;2023-06-19T03:16:33;11.27;;;7.03;;
38851;SDS011;24605;50.092;9.182;2023-06-19T03:19:01;10.45;;;6.70;;
38851;SDS011;24605;50.092;9.182;2023-06-19T03:21:27;9.30;;;7.10;;
38851;SDS011;24605;50.092;9.182;2023-06-19T03:23:55;8.88;;;6.57;;
38851;SDS011;24605;50.092;9.182;2023-06-19T03:26:22;8.30;;;6.30;;
38851;SDS011;24605;50.092;9.182;2023-06-19T03:28:49;13.10;;;7.00;;
38851;SDS011;24605;50.092;9.182;2023-06-19T03:31:16;9.80;;;6.68;;
38851;SDS011;24605;50.092;9.182;2023-06-19T03:33:43;11.35;;;7.28;;
38851;SDS011;24605;50.092;9.182;2023-06-19T03:36:09;10.93;;;7.80;;
38851;SDS011;24605;50.092;9.182;2023-06-19T03:38:36;11.00;;;7.82;;
38851;SDS011;24605;50.092;9.182;2023-06-19T03:41:04;11.55;;;7.47;;
38851;SDS011;24605;50.092;9.182;2023-06-19T03:43:30;9.50;;;7.45;;
38851;SDS011;24605;50.092;9.182;2023-06-19T03:45:57;9.95;;;7.47;;
38851;SDS011;24605;50.092;9.182;2023-06-19T03:48:23;10.10;;;6.88;;
38851;SDS011;24605;50.092;9.182;2023-06-19T03:50:49;10.65;;;7.32;;
38851;SDS011;24605;50.092;9.182;2023-06-19T03:53:16;10.63;;;8.20;;
38851;SDS011;24605;50.092;9.182;2023-06-19T03:55:43;9.75;;;7.55;;
38851;SDS011;24605;50.092;9.182;2023-06-19T03:58:11;11.88;;;7.53;;
38851;SDS011;24605;50.092;9.182;2023-06-19T04:00:38;9.70;;;7.78;;
38851;SDS011;24605;50.092;9.182;2023-06-19T04:03:06;12.65;;;7.78;;
38851;SDS011;24605;50.092;9.182;2023-06-19T04:05:34;14.32;;;7.68;;
38851;SDS011;24605;50.092;9.182;2023-06-19T04:08:01;14.93;;;7.95;;
38851;SDS011;24605;50.092;9.182;2023-06-19T04:10:28;11.05;;;7.20;;
38851;SDS011;24605;50.092;9.182;2023-06-19T04:12:55;11.18;;;6.68;;
38851;SDS011;24605;50.092;9.182;2023-06-19T04:15:23;11.18;;;7.18;;
38851;SDS011;24605;50.092;9.182;2023-06-19T04:17:49;10.48;;;6.75;;
38851;SDS011;24605;50.092;9.182;2023-06-19T04:20:15;9.80;;;6.75;;
38851;SDS011;24605;50.092;9.182;2023-06-19T04:22:42;9.02;;;6.78;;
38851;SDS011;24605;50.092;9.182;2023-06-19T04:25:09;9.35;;;6.15;;
38851;SDS011;24605;50.092;9.182;2023-06-19T04:27:36;9.95;;;6.80;;
38851;SDS011;24605;50.092;9.182;2023-06-19T04:30:03;8.50;;;6.47;;
38851;SDS011;24605;50.092;9.182;2023-06-19T04:32:32;10.18;;;7.00;;
38851;SDS011;24605;50.092;9.182;2023-06-19T04:34:59;8.32;;;6.50;;
38851;SDS011;24605;50.092;9.182;2023-06-19T04:37:26;7.72;;;6.18;;
38851;SDS011;24605;50.092;9.182;2023-06-19T04:39:52;7.43;;;6.10;;
38851;SDS011;24605;50.092;9.182;2023-06-19T04:42:19;9.07;;;6.65;;
38851;SDS011;24605;50.092;9.182;2023-06-19T04:44:45;8.50;;;6.25;;
38851;SDS011;24605;50.092;9.182;2023-06-19T04:47:12;7.50;;;6.00;;
38851;SDS011;24605;50.092;9.182;2023-06-19T04:49:40;8.25;;;5.20;;
38851;SDS011;24605;50.092;9.182;2023-06-19T04:52:06;7.53;;;5.35;;
38851;SDS011;24605;50.092;9.182;2023-06-19T04:54:33;6.60;;;4.93;;
38851;SDS011;24605;50.092;9.182;2023-06-19T04:57:00;6.57;;;4.95;;
38851;SDS011;24605;50.092;9.182;2023-06-19T04:59:26;7.68;;;4.88;;
38851;SDS011;24605;50.092;9.182;2023-06-19T05:01:55;6.30;;;4.50;;
38851;SDS011;24605;50.092;9.182;2023-06-19T05:04:21;6.38;;;4.55;;
38851;SDS011;24605;50.092;9.182;2023-06-19T05:06:49;7.20;;;4.82;;
38851;SDS011;24605;50.092;9.182;2023-06-19T05:09:16;6.10;;;4.45;;
38851;SDS011;24605;50.092;9.182;2023-06-19T05:11:43;7.88;;;4.30;;
38851;SDS011;24605;50.092;9.182;2023-06-19T05:14:09;5.25;;;4.13;;
38851;SDS011;24605;50.092;9.182;2023-06-19T05:16:36;7.03;;;4.20;;
38851;SDS011;24605;50.092;9.182;2023-06-19T05:19:03;6.80;;;4.03;;
38851;SDS011;24605;50.092;9.182;2023-06-19T05:21:30;6.50;;;4.20;;
38851;SDS011;24605;50.092;9.182;2023-06-19T05:23:58;10.95;;;4.68;;
38851;SDS011;24605;50.092;9.182;2023-06-19T05:26:24;8.77;;;4.53;;
38851;SDS011;24605;50.092;9.182;2023-06-19T05:28:51;6.35;;;4.40;;
38851;SDS011;24605;50.092;9.182;2023-06-19T05:31:18;6.57;;;4.32;;
38851;SDS011;24605;50.092;9.182;2023-06-19T05:33:45;7.10;;;4.47;;
38851;SDS011;24605;50.092;9.182;2023-06-19T05:36:11;5.85;;;4.57;;
38851;SDS011;24605;50.092;9.182;2023-06-19T05:38:38;7.75;;;4.82;;
38851;SDS011;24605;50.092;9.182;2023-06-19T05:41:06;10.30;;;4.93;;
38851;SDS011;24605;50.092;9.182;2023-06-19T05:43:34;6.97;;;4.90;;
38851;SDS011;24605;50.092;9.182;2023-06-19T05:46:00;7.75;;;4.65;;
38851;SDS011;24605;50.092;9.182;2023-06-19T05:48:27;6.75;;;4.68;;
38851;SDS011;24605;50.092;9.182;2023-06-19T05:50:54;9.43;;;4.68;;
38851;SDS011;24605;50.092;9.182;2023-06-19T05:53:20;7.60;;;4.57;;
38851;SDS011;24605;50.092;9.182;2023-06-19T05:55:47;8.43;;;4.50;;
38851;SDS011;24605;50.092;9.182;2023-06-19T05:58:14;6.72;;;4.35;;
38851;SDS011;24605;50.092;9.182;2023-06-19T06:00:44;7.82;;;4.55;;
38851;SDS011;24605;50.092;9.182;2023-06-19T06:03:11;5.90;;;4.50;;
38851;SDS011;24605;50.092;9.182;2023-06-19T06:05:38;7.22;;;4.70;;
38851;SDS011;24605;50.092;9.182;2023-06-19T06:08:05;5.50;;;4.28;;
38851;SDS011;24605;50.092;9.182;2023-06-19T06:10:32;7.07;;;4.47;;
38851;SDS011;24605;50.092;9.182;2023-06-19T06:12:59;7.00;;;4.22;;
38851;SDS011;24605;50.092;9.182;2023-06-19T06:15:27;7.85;;;4.45;;
38851;SDS011;24605;50.092;9.182;2023-06-19T06:17:53;6.60;;;4.40;;
38851;SDS011;24605;50.092;9.182;2023-06-19T06:20:20;7.00;;;4.60;;
38851;SDS011;24605;50.092;9.182;2023-06-19T06:22:46;6.95;;;4.60;;
38851;SDS011;24605;50.092;9.182;2023-06-19T06:25:13;7.32;;;4.68;;
38851;SDS011;24605;50.092;9.182;2023-06-19T06:27:40;6.13;;;4.43;;
38851;SDS011;24605;50.092;9.182;2023-06-19T06:30:07;6.50;;;4.30;;
38851;SDS011;24605;50.092;9.182;2023-06-19T06:32:37;7.07;;;4.28;;
38851;SDS011;24605;50.092;9.182;2023-06-19T06:35:04;4.90;;;3.83;;
38851;SDS011;24605;50.092;9.182;2023-06-19T06:37:31;6.78;;;4.20;;
38851;SDS011;24605;50.092;9.182;2023-06-19T06:39:58;6.68;;;4.22;;
38851;SDS011;24605;50.092;9.182;2023-06-19T06:42:25;6.68;;;4.63;;
38851;SDS011;24605;50.092;9.182;2023-06-19T06:44:51;6.28;;;4.30;;
38851;SDS011;24605;50.092;9.182;2023-06-19T06:47:18;6.88;;;4.80;;
38851;SDS011;24605;50.092;9.182;2023-06-19T06:49:45;7.28;;;5.05;;
38851;SDS011;24605;50.092;9.182;2023-06-19T06:52:12;7.18;;;4.97;;
38851;SDS011;24605;50.092;9.182;2023-06-19T06:54:38;9.45;;;4.90;;
38851;SDS011;24605;50.092;9.182;2023-06-19T06:57:05;6.40;;;4.53;;
38851;SDS011;24605;50.092;9.182;2023-06-19T06:59:31;8.73;;;4.80;;
38851;SDS011;24605;50.092;9.182;2023-06-19T07:01:58;7.70;;;4.82;;
38851;SDS011;24605;50.092;9.182;2023-06-19T07:04:24;8.70;;;4.97;;
38851;SDS011;24605;50.092;9.182;2023-06-19T07:06:52;7.85;;;5.00;;
38851;SDS011;24605;50.092;9.182;2023-06-19T07:09:18;9.30;;;4.60;;
38851;SDS011;24605;50.092;9.182;2023-06-19T07:11:46;5.97;;;4.57;;
38851;SDS011;24605;50.092;9.182;2023-06-19T07:14:12;9.02;;;5.03;;
38851;SDS011;24605;50.092;9.182;2023-06-19T07:16:39;8.80;;;4.50;;
38851;SDS011;24605;50.092;9.182;2023-06-19T07:19:06;7.88;;;4.70;;
38851;SDS011;24605;50.092;9.182;2023-06-19T07:21:32;7.20;;;4.38;;
38851;SDS011;24605;50.092;9.182;2023-06-19T07:24:00;5.13;;;4.18;;
38851;SDS011;24605;50.092;9.182;2023-06-19T07:26:27;6.97;;;4.38;;
38851;SDS011;24605;50.092;9.182;2023-06-19T07:28:53;8.48;;;4.63;;
38851;SDS011;24605;50.092;9.182;2023-06-19T07:31:20;7.10;;;4.15;;
38851;SDS011;24605;50.092;9.182;2023-06-19T07:33:46;6.38;;;4.30;;
38851;SDS011;24605;50.092;9.182;2023-06-19T07:36:13;5.63;;;4.00;;
38851;SDS011;24605;50.092;9.182;2023-06-19T07:38:41;5.10;;;4.30;;
38851;SDS011;24605;50.092;9.182;2023-06-19T07:41:09;6.43;;;3.92;;
38851;SDS011;24605;50.092;9.182;2023-06-19T07:43:36;5.53;;;4.05;;
38851;SDS011;24605;50.092;9.182;2023-06-19T07:46:03;6.80;;;4.45;;
38851;SDS011;24605;50.092;9.182;2023-06-19T07:48:30;7.50;;;4.43;;
38851;SDS011;24605;50.092;9.182;2023-06-19T07:50:56;6.57;;;4.63;;
38851;SDS011;24605;50.092;9.182;2023-06-19T07:53:23;6.63;;;4.10;;
38851;SDS011;24605;50.092;9.182;2023-06-19T07:55:49;8.85;;;4.13;;
38851;SDS011;24605;50.092;9.182;2023-06-19T07:58:17;7.95;;;4.03;;
38851;SDS011;24605;50.092;9.182;2023-06-19T08:00:43;6.65;;;4.22;;
38851;SDS011;24605;50.092;9.182;2023-06-19T08:03:10;10.48;;;4.45;;
38851;SDS011;24605;50.092;9.182;2023-06-19T08:05:37;6.47;;;4.05;;
38851;SDS011;24605;50.092;9.182;2023-06-19T08:08:03;7.05;;;4.38;;
38851;SDS011;24605;50.092;9.182;2023-06-19T08:10:30;6.55;;;3.90;;
38851;SDS011;24605;50.092;9.182;2023-06-19T08:12:56;5.80;;;4.10;;
38851;SDS011;24605;50.092;9.182;2023-06-19T08:15:24;6.07;;;3.80;;
38851;SDS011;24605;50.092;9.182;2023-06-19T08:17:51;6.55;;;4.40;;
38851;SDS011;24605;50.092;9.182;2023-06-19T08:20:18;6.00;;;3.92;;
38851;SDS011;24605;50.092;9.182;2023-06-19T08:22:45;6.28;;;4.00;;
38851;SDS011;24605;50.092;9.182;2023-06-19T08:25:11;5.75;;;3.88;;
38851;SDS011;24605;50.092;9.182;2023-06-19T08:27:38;8.02;;;3.97;;
38851;SDS011;24605;50.092;9.182;2023-06-19T08:30:05;7.28;;;4.00;;
38851;SDS011;24605;50.092;9.182;2023-06-19T08:32:33;5.65;;;4.25;;
38851;SDS011;24605;50.092;9.182;2023-06-19T08:35:00;6.20;;;3.88;;
38851;SDS011;24605;50.092;9.182;2023-06-19T08:37:26;6.45;;;4.28;;
38851;SDS011;24605;50.092;9.182;2023-06-19T08:39:53;6.38;;;4.00;;
38851;SDS011;24605;50.092;9.182;2023-06-19T08:42:20;5.45;;;4.13;;
38851;SDS011;24605;50.092;9.182;2023-06-19T08:44:48;10.70;;;4.20;;
38851;SDS011;24605;50.092;9.182;2023-06-19T08:47:14;6.15;;;4.50;;
38851;SDS011;24605;50.092;9.182;2023-06-19T08:49:42;6.60;;;4.00;;
38851;SDS011;24605;50.092;9.182;2023-06-19T08:52:09;5.88;;;4.57;;
38851;SDS011;24605;50.092;9.182;2023-06-19T08:54:36;6.95;;;4.22;;
38851;SDS011;24605;50.092;9.182;2023-06-19T08:57:08;5.05;;;4.05;;
38851;SDS011;24605;50.092;9.182;2023-06-19T08:59:35;7.20;;;4.05;;
38851;SDS011;24605;50.092;9.182;2023-06-19T09:02:02;5.43;;;3.75;;
38851;SDS011;24605;50.092;9.182;2023-06-19T09:04:28;5.20;;;3.60;;
38851;SDS011;24605;50.092;9.182;2023-06-19T09:06:57;4.95;;;3.60;;
38851;SDS011;24605;50.092;9.182;2023-06-19T09:09:25;8.30;;;3.83;;
38851;SDS011;24605;50.092;9.182;2023-06-19T09:11:59;8.73;;;3.60;;
38851;SDS011;24605;50.092;9.182;2023-06-19T09:14:33;5.63;;;4.00;;
38851;SDS011;24605;50.092;9.182;2023-06-19T09:17:01;6.80;;;3.97;;
38851;SDS011;24605;50.092;9.182;2023-06-19T09:19:28;6.82;;;4.28;;
38851;SDS011;24605;50.092;9.182;2023-06-19T09:22:00;6.88;;;4.65;;
38851;SDS011;24605;50.092;9.182;2023-06-19T09:24:32;5.13;;;4.15;;
38851;SDS011;24605;50.092;9.182;2023-06-19T09:27:05;6.97;;;4.13;;
38851;SDS011;24605;50.092;9.182;2023-06-19T09:29:35;8.43;;;3.85;;
38851;SDS011;24605;50.092;9.182;2023-06-19T09:32:02;6.78;;;3.80;;
38851;SDS011;24605;50.092;9.182;2023-06-19T09:34:40;4.88;;;3.60;;
38851;SDS011;24605;50.092;9.182;2023-06-19T09:37:08;5.95;;;3.92;;
38851;SDS011;24605;50.092;9.182;2023-06-19T09:39:35;6.07;;;4.07;;
38851;SDS011;24605;50.092;9.182;2023-06-19T09:42:03;7.22;;;4.53;;
38851;SDS011;24605;50.092;9.182;2023-06-19T09:44:35;7.30;;;4.60;;
38851;SDS011;24605;50.092;9.182;2023-06-19T09:47:06;7.90;;;4.80;;
38851;SDS011;24605;50.092;9.182;2023-06-19T09:49:42;5.88;;;4.15;;
38851;SDS011;24605;50.092;9.182;2023-06-19T09:52:15;5.88;;;4.28;;
38851;SDS011;24605;50.092;9.182;2023-06-19T09:54:41;6.18;;;3.85;;
38851;SDS011;24605;50.092;9.182;2023-06-19T09:57:09;7.63;;;4.60;;
38851;SDS011;24605;50.092;9.182;2023-06-19T09:59:37;8.88;;;3.90;;
38851;SDS011;24605;50.092;9.182;2023-06-19T10:02:05;5.82;;;4.28;;
38851;SDS011;24605;50.092;9.182;2023-06-19T10:04:41;6.10;;;4.05;;
38851;SDS011;24605;50.092;9.182;2023-06-19T10:07:15;14.55;;;4.35;;
38851;SDS011;24605;50.092;9.182;2023-06-19T10:09:54;6.10;;;4.35;;
38851;SDS011;24605;50.092;9.182;2023-06-19T10:12:21;5.38;;;4.10;;
38851;SDS011;24605;50.092;9.182;2023-06-19T10:14:48;5.95;;;4.20;;
38851;SDS011;24605;50.092;9.182;2023-06-19T10:17:16;8.60;;;4.45;;
38851;SDS011;24605;50.092;9.182;2023-06-19T10:19:48;6.47;;;4.10;;
38851;SDS011;24605;50.092;9.182;2023-06-19T10:22:20;7.35;;;4.40;;
38851;SDS011;24605;50.092;9.182;2023-06-19T10:24:49;8.88;;;4.38;;
38851;SDS011;24605;50.092;9.182;2023-06-19T10:27:20;7.78;;;4.20;;
38851;SDS011;24605;50.092;9.182;2023-06-19T10:29:51;6.95;;;4.32;;
38851;SDS011;24605;50.092;9.182;2023-06-19T10:32:18;6.20;;;4.63;;
38851;SDS011;24605;50.092;9.182;2023-06-19T10:34:45;8.43;;;4.30;;
38851;SDS011;24605;50.092;9.182;2023-06-19T10:37:13;7.18;;;4.07;;
38851;SDS011;24605;50.092;9.182;2023-06-19T10:39:41;6.07;;;4.13;;
38851;SDS011;24605;50.092;9.182;2023-06-19T10:42:09;5.40;;;3.95;;
38851;SDS011;24605;50.092;9.182;2023-06-19T10:44:36;8.65;;;4.00;;
38851;SDS011;24605;50.092;9.182;2023-06-19T10:47:03;5.40;;;3.92;;
38851;SDS011;24605;50.092;9.182;2023-06-19T10:49:30;6.40;;;4.35;;
38851;SDS011;24605;50.092;9.182;2023-06-19T10:51:59;5.03;;;3.80;;
38851;SDS011;24605;50.092;9.182;2023-06-19T10:54:26;7.45;;;4.00;;
38851;SDS011;24605;50.092;9.182;2023-06-19T10:56:55;5.45;;;4.03;;
38851;SDS011;24605;50.092;9.182;2023-06-19T10:59:22;7.22;;;4.25;;
38851;SDS011;24605;50.092;9.182;2023-06-19T11:01:49;6.65;;;4.30;;
38851;SDS011;24605;50.092;9.182;2023-06-19T11:04:16;6.03;;;3.80;;
38851;SDS011;24605;50.092;9.182;2023-06-19T11:06:43;5.68;;;4.10;;
38851;SDS011;24605;50.092;9.182;2023-06-19T11:09:11;7.75;;;4.30;;
38851;SDS011;24605;50.092;9.182;2023-06-19T11:11:39;8.90;;;4.88;;
38851;SDS011;24605;50.092;9.182;2023-06-19T11:14:08;6.50;;;4.28;;
38851;SDS011;24605;50.092;9.182;2023-06-19T11:16:37;6.07;;;4.57;;
38851;SDS011;24605;50.092;9.182;2023-06-19T11:19:06;6.28;;;3.90;;
38851;SDS011;24605;50.092;9.182;2023-06-19T11:21:34;8.18;;;4.20;;
38851;SDS011;24605;50.092;9.182;2023-06-19T11:24:03;7.13;;;4.38;;
38851;SDS011;24605;50.092;9.182;2023-06-19T11:26:34;6.80;;;4.00;;
38851;SDS011;24605;50.092;9.182;2023-06-19T11:29:14;7.97;;;4.00;;
38851;SDS011;24605;50.092;9.182;2023-06-19T11:31:41;6.97;;;4.47;;
38851;SDS011;24605;50.092;9.182;2023-06-19T11:34:08;6.75;;;4.50;;
38851;SDS011;24605;50.092;9.182;2023-06-19T11:36:36;8.55;;;4.10;;
38851;SDS011;24605;50.092;9.182;2023-06-19T11:39:03;8.52;;;3.80;;
38851;SDS011;24605;50.092;9.182;2023-06-19T11:41:34;5.72;;;4.00;;
38851;SDS011;24605;50.092;9.182;2023-06-19T11:44:00;6.40;;;4.03;;
38851;SDS011;24605;50.092;9.182;2023-06-19T11:46:31;6.28;;;4.43;;
38851;SDS011;24605;50.092;9.182;2023-06-19T11:49:08;9.43;;;4.43;;
38851;SDS011;24605;50.092;9.182;2023-06-19T11:51:35;6.28;;;3.90;;
38851;SDS011;24605;50.092;9.182;2023-06-19T11:54:04;4.88;;;4.07;;
38851;SDS011;24605;50.092;9.182;2023-06-19T11:56:32;6.88;;;4.10;;
38851;SDS011;24605;50.092;9.182;2023-06-19T11:58:59;8.18;;;4.60;;
38851;SDS011;24605;50.092;9.182;2023-06-19T12:01:25;8.60;;;3.80;;
38851;SDS011;24605;50.092;9.182;2023-06-19T12:03:53;7.53;;;4.20;;
38851;SDS011;24605;50.092;9.182;2023-06-19T12:06:20;5.82;;;3.85;;
38851;SDS011;24605;50.092;9.182;2023-06-19T12:08:47;7.30;;;4.15;;
38851;SDS011;24605;50.092;9.182;2023-06-19T12:11:13;7.22;;;4.07;;
38851;SDS011;24605;50.092;9.182;2023-06-19T12:13:40;5.78;;;4.07;;
38851;SDS011;24605;50.092;9.182;2023-06-19T12:16:06;7.20;;;3.90;;
38851;SDS011;24605;50.092;9.182;2023-06-19T12:18:33;7.93;;;4.13;;
38851;SDS011;24605;50.092;9.182;2023-06-19T12:21:00;7.72;;;4.00;;
38851;SDS011;24605;50.092;9.182;2023-06-19T12:23:27;5.68;;;3.85;;
38851;SDS011;24605;50.092;9.182;2023-06-19T12:25:53;5.90;;;3.67;;
38851;SDS011;24605;50.092;9.182;2023-06-19T12:28:20;6.05;;;3.83;;
38851;SDS011;24605;50.092;9.182;2023-06-19T12:30:47;5.18;;;3.50;;
38851;SDS011;24605;50.092;9.182;2023-06-19T12:33:17;4.88;;;3.65;;
38851;SDS011;24605;50.092;9.182;2023-06-19T12:35:44;6.68;;;3.67;;
38851;SDS011;24605;50.092;9.182;2023-06-19T12:38:12;5.97;;;3.97;;
38851;SDS011;24605;50.092;9.182;2023-06-19T12:40:38;5.35;;;3.97;;
38851;SDS011;24605;50.092;9.182;2023-06-19T12:43:05;6.13;;;3.50;;
38851;SDS011;24605;50.092;9.182;2023-06-19T12:45:32;5.20;;;3.25;;
38851;SDS011;24605;50.092;9.182;2023-06-19T12:47:59;6.70;;;3.80;;
38851;SDS011;24605;50.092;9.182;2023-06-19T12:50:25;5.25;;;3.80;;
38851;SDS011;24605;50.092;9.182;2023-06-19T12:52:52;5.95;;;3.67;;
38851;SDS011;24605;50.092;9.182;2023-06-19T12:55:19;6.68;;;3.60;;
38851;SDS011;24605;50.092;9.182;2023-06-19T12:57:46;6.25;;;3.85;;
38851;SDS011;24605;50.092;9.182;2023-06-19T13:00:13;6.60;;;4.03;;
38851;SDS011;24605;50.092;9.182;2023-06-19T13:02:40;5.70;;;3.95;;
38851;SDS011;24605;50.092;9.182;2023-06-19T13:05:08;5.13;;;3.65;;
38851;SDS011;24605;50.092;9.182;2023-06-19T13:07:35;6.53;;;4.00;;
38851;SDS011;24605;50.092;9.182;2023-06-19T13:10:01;5.93;;;3.92;;
38851;SDS011;24605;50.092;9.182;2023-06-19T13:12:29;8.32;;;3.97;;
38851;SDS011;24605;50.092;9.182;2023-06-19T13:14:56;5.80;;;3.75;;
38851;SDS011;24605;50.092;9.182;2023-06-19T13:17:23;6.03;;;3.70;;
38851;SDS011;24605;50.092;9.182;2023-06-19T13:19:49;7.32;;;3.75;;
38851;SDS011;24605;50.092;9.182;2023-06-19T13:22:16;5.07;;;3.90;;
38851;SDS011;24605;50.092;9.182;2023-06-19T13:24:42;5.18;;;3.88;;
38851;SDS011;24605;50.092;9.182;2023-06-19T13:27:09;5.30;;;3.85;;
38851;SDS011;24605;50.092;9.182;2023-06-19T13:29:37;7.53;;;4.30;;
38851;SDS011;24605;50.092;9.182;2023-06-19T13:32:05;5.80;;;3.95;;
38851;SDS011;24605;50.092;9.182;2023-06-19T13:34:32;6.88;;;4.15;;
38851;SDS011;24605;50.092;9.182;2023-06-19T13:36:59;6.53;;;4.00;;
38851;SDS011;24605;50.092;9.182;2023-06-19T13:39:25;6.15;;;4.20;;
38851;SDS011;24605;50.092;9.182;2023-06-19T13:41:52;7.25;;;4.22;;
38851;SDS011;24605;50.092;9.182;2023-06-19T13:44:18;7.93;;;4.32;;
38851;SDS011;24605;50.092;9.182;2023-06-19T13:46:46;8.23;;;4.20;;
38851;SDS011;24605;50.092;9.182;2023-06-19T13:49:13;8.25;;;4.20;;
38851;SDS011;24605;50.092;9.182;2023-06-19T13:51:39;6.32;;;4.60;;
38851;SDS011;24605;50.092;9.182;2023-06-19T13:54:06;8.50;;;4.22;;
38851;SDS011;24605;50.092;9.182;2023-06-19T13:56:33;5.72;;;4.25;;
38851;SDS011;24605;50.092;9.182;2023-06-19T13:58:59;6.53;;;4.20;;
38851;SDS011;24605;50.092;9.182;2023-06-19T14:01:26;7.00;;;4.20;;
38851;SDS011;24605;50.092;9.182;2023-06-19T14:03:54;6.18;;;4.65;;
38851;SDS011;24605;50.092;9.182;2023-06-19T14:06:22;7.43;;;3.85;;
38851;SDS011;24605;50.092;9.182;2023-06-19T14:08:49;5.18;;;3.92;;
38851;SDS011;24605;50.092;9.182;2023-06-19T14:11:15;6.03;;;4.10;;
38851;SDS011;24605;50.092;9.182;2023-06-19T14:13:42;7.00;;;4.10;;
38851;SDS011;24605;50.092;9.182;2023-06-19T14:16:08;8.05;;;3.80;;
38851;SDS011;24605;50.092;9.182;2023-06-19T14:18:35;5.40;;;3.80;;
38851;SDS011;24605;50.092;9.182;2023-06-19T14:21:03;5.80;;;3.83;;
38851;SDS011;24605;50.092;9.182;2023-06-19T14:23:29;4.80;;;3.55;;
38851;SDS011;24605;50.092;9.182;2023-06-19T14:25:56;7.07;;;4.07;;
38851;SDS011;24605;50.092;9.182;2023-06-19T14:28:22;5.03;;;3.83;;
38851;SDS011;24605;50.092;9.182;2023-06-19T14:30:49;7.70;;;3.38;;
38851;SDS011;24605;50.092;9.182;2023-06-19T14:33:15;4.45;;;3.30;;
38851;SDS011;24605;50.092;9.182;2023-06-19T14:35:42;5.78;;;3.65;;
38851;SDS011;24605;50.092;9.182;2023-06-19T14:38:12;4.90;;;3.63;;
38851;SDS011;24605;50.092;9.182;2023-06-19T14:40:39;7.35;;;3.92;;
38851;SDS011;24605;50.092;9.182;2023-06-19T14:43:05;7.28;;;3.38;;
38851;SDS011;24605;50.092;9.182;2023-06-19T14:45:34;5.65;;;3.42;;
38851;SDS011;24605;50.092;9.182;2023-06-19T14:48:00;5.57;;;3.40;;